Terminal Aerodrome Forecast
Issued by NWS Charleston, WV

Current Version | Previous Version | Text Only | Print | Product List | Glossary Off
Versions: 1 2 3 4 5 6 7 8 9 10 11 12 13 14 15 16 17 18 19 20 21 22 23 24 25

620
FTUS41 KRLX 231445 AAC
TAFEKN
TAF AMD
KEKN 231445Z 2315/2412 21004KT 6SM BR HZ BKN040
     FM231700 23005KT P6SM SCT030 BKN040
     FM240700 17004KT 5SM BR SCT040=

USA.gov is the U.S. government's official web portal to all federal, state and local government web resources and services.